Time;durP1;ratioP1;P1;durP2;ratioP2;P2;SDS_P1;SDS_P2;PMS_P1;PMS_P2;Temp;Humidity;BMP_temperature;BMP_pressure;BME280_temperature;BME280_humidity;BME280_pressure;Samples;Min_cycle;Max_cycle;Signal;HPM_P1;HPM_P2
2022/03/14 00:01:06;;;;;;;1.58;1.15;;;;;;;11.64;56.19;101579.97;5113074;27;20036;-68
2022/03/14 00:03:41;;;;;;;2.85;1.63;;;;;;;11.62;56.12;101579.13;5111323;28;20048;-67
2022/03/14 00:06:10;;;;;;;1.90;1.30;;;;;;;11.62;56.47;101580.91;5111902;27;20056;-67
2022/03/14 00:08:40;;;;;;;2.83;1.20;;;;;;;11.60;56.29;101578.28;5110093;28;20489;-67
2022/03/14 00:11:07;;;;;;;2.13;1.30;;;;;;;11.57;56.16;101583.66;5112802;28;20040;-67
2022/03/14 00:13:35;;;;;;;1.48;1.17;;;;;;;11.56;56.63;101597.75;5113046;28;20050;-67
2022/03/14 00:16:03;;;;;;;2.25;1.30;;;;;;;11.54;56.90;101599.56;5109948;27;20040;-67
2022/03/14 00:18:31;;;;;;;2.03;1.48;;;;;;;11.51;56.66;101594.31;5112357;27;20105;-68
2022/03/14 00:20:58;;;;;;;1.77;1.48;;;;;;;11.49;57.12;101602.28;5112605;27;20760;-66
2022/03/14 00:23:28;;;;;;;1.40;1.27;;;;;;;11.46;56.94;101599.72;5112614;27;20842;-68
2022/03/14 00:25:57;;;;;;;1.58;1.40;;;;;;;11.45;56.83;101602.41;5111258;28;20052;-68
2022/03/14 00:28:25;;;;;;;1.42;1.23;;;;;;;11.45;56.88;101605.88;5111900;27;20047;-67
2022/03/14 00:30:57;;;;;;;4.28;1.67;;;;;;;11.42;57.18;101608.63;5112844;27;20044;-67
2022/03/14 00:33:25;;;;;;;2.42;1.40;;;;;;;11.42;57.45;101602.44;5112785;27;20044;-67
2022/03/14 00:35:56;;;;;;;2.70;1.50;;;;;;;11.42;57.52;101607.72;5111709;27;20051;-68
2022/03/14 00:38:28;;;;;;;2.30;1.60;;;;;;;11.41;57.55;101606.00;5111983;27;20036;-68
2022/03/14 00:40:55;;;;;;;1.92;1.38;;;;;;;11.39;57.75;101607.81;5112788;28;20048;-68
2022/03/14 00:43:22;;;;;;;2.35;1.52;;;;;;;11.38;57.70;101609.56;5113436;27;20036;-68
2022/03/14 00:45:49;;;;;;;1.83;1.30;;;;;;;11.36;57.90;101621.94;5120850;27;20044;-68
2022/03/14 00:48:16;;;;;;;3.35;1.50;;;;;;;11.34;57.74;101621.97;5118721;27;20047;-69
2022/03/14 00:50:43;;;;;;;1.90;1.60;;;;;;;11.33;57.90;101614.09;5111513;27;20112;-68
2022/03/14 00:53:10;;;;;;;1.67;1.40;;;;;;;11.31;57.86;101619.38;5111411;27;20047;-68
2022/03/14 00:55:38;;;;;;;2.10;1.40;;;;;;;11.30;58.09;101625.56;5108778;27;20051;-68
2022/03/14 00:58:07;;;;;;;1.80;1.45;;;;;;;11.28;58.27;101626.50;5111273;27;20036;-68
2022/03/14 01:00:34;;;;;;;2.00;1.58;;;;;;;11.25;58.28;101626.56;5108694;28;20052;-68
2022/03/14 01:03:02;;;;;;;1.95;1.48;;;;;;;11.20;58.27;101631.94;5108281;27;20044;-68
2022/03/14 01:05:31;;;;;;;1.85;1.42;;;;;;;11.18;58.65;101631.13;5110808;28;20036;-68
2022/03/14 01:08:03;;;;;;;2.38;1.40;;;;;;;11.14;58.76;101638.22;5110610;28;20093;-68
2022/03/14 01:10:33;;;;;;;2.33;1.50;;;;;;;11.13;58.93;101641.78;5109991;27;20050;-68
2022/03/14 01:13:03;;;;;;;1.83;1.33;;;;;;;11.11;59.24;101647.97;5112535;28;20043;-68
2022/03/14 01:15:34;;;;;;;1.90;1.30;;;;;;;11.07;59.27;101641.88;5108519;27;20123;-69
2022/03/14 01:18:07;;;;;;;1.52;1.40;;;;;;;11.04;59.20;101641.91;5111763;27;20109;-67
2022/03/14 01:20:35;;;;;;;2.50;1.40;;;;;;;11.03;59.61;101653.41;5110318;27;20132;-66
2022/03/14 01:23:03;;;;;;;2.10;1.50;;;;;;;11.02;59.54;101656.94;5108537;28;20032;-65
2022/03/14 01:25:30;;;;;;;1.90;1.50;;;;;;;11.02;59.55;101655.16;5110257;27;20055;-66
2022/03/14 01:27:57;;;;;;;1.83;1.30;;;;;;;11.01;59.66;101657.84;5108610;28;20044;-66
2022/03/14 01:30:24;;;;;;;2.92;1.70;;;;;;;11.01;59.77;101665.75;5110372;27;20044;-67
2022/03/14 01:32:51;;;;;;;2.95;1.33;;;;;;;11.00;59.85;101661.38;5107901;28;20040;-66
2022/03/14 01:35:19;;;;;;;1.85;1.40;;;;;;;11.00;59.95;101661.38;5111192;28;20044;-66
2022/03/14 01:37:50;;;;;;;2.88;1.42;;;;;;;11.00;59.99;101662.22;5111562;27;20064;-66
2022/03/14 01:40:19;;;;;;;1.52;1.30;;;;;;;10.99;60.13;101659.63;5111428;27;20043;-65
2022/03/14 01:42:50;;;;;;;2.08;1.60;;;;;;;10.98;60.23;101655.25;5111121;28;20075;-66
2022/03/14 01:45:18;;;;;;;1.83;1.38;;;;;;;10.95;60.27;101657.94;5111883;27;20494;-67
2022/03/14 01:47:45;;;;;;;3.05;1.70;;;;;;;10.91;60.41;101666.81;5110820;27;20052;-67
2022/03/14 01:50:14;;;;;;;2.00;1.58;;;;;;;10.88;60.62;101671.25;5111293;27;20047;-67
2022/03/14 01:52:43;;;;;;;2.00;1.60;;;;;;;10.87;60.52;101673.94;5110888;28;20143;-67
2022/03/14 01:55:13;;;;;;;2.90;1.73;;;;;;;10.84;60.84;101677.47;5111801;28;20043;-67
2022/03/14 01:57:42;;;;;;;1.73;1.50;;;;;;;10.82;60.85;101676.66;5110184;27;20052;-66
2022/03/14 02:00:13;;;;;;;1.90;1.50;;;;;;;10.80;60.95;101673.16;5105094;27;20429;-68
2022/03/14 02:02:43;;;;;;;2.33;1.70;;;;;;;10.81;61.72;101671.38;5108835;27;20078;-70
2022/03/14 02:05:12;;;;;;;2.05;1.80;;;;;;;10.79;61.67;101676.69;5106818;27;20129;-69
2022/03/14 02:07:40;;;;;;;2.28;1.77;;;;;;;10.80;61.88;101678.44;5105552;28;20536;-69
2022/03/14 02:10:08;;;;;;;2.65;1.92;;;;;;;10.79;62.02;101675.81;5108095;27;20123;-69
2022/03/14 02:12:35;;;;;;;2.50;1.90;;;;;;;10.78;61.85;101680.22;5110263;28;20040;-68
2022/03/14 02:15:10;;;;;;;3.28;1.88;;;;;;;10.79;61.98;101676.69;5112310;28;20048;-68
2022/03/14 02:17:37;;;;;;;2.70;1.80;;;;;;;10.79;61.82;101681.97;5113553;27;20040;-68
2022/03/14 02:20:05;;;;;;;2.53;2.00;;;;;;;10.80;61.79;101678.44;5114277;27;20048;-68
2022/03/14 02:22:32;;;;;;;2.70;1.90;;;;;;;10.80;62.34;101682.81;5111753;28;20063;-68
2022/03/14 02:24:59;;;;;;;2.80;2.10;;;;;;;10.79;62.05;101684.59;5114166;27;20040;-69
2022/03/14 02:27:26;;;;;;;3.08;2.10;;;;;;;10.76;62.66;101682.00;5113174;28;20052;-69
2022/03/14 02:29:53;;;;;;;2.30;1.70;;;;;;;10.75;62.46;101689.97;5121824;27;20044;-68
2022/03/14 02:32:21;;;;;;;3.05;1.92;;;;;;;10.74;62.54;101688.22;5114831;27;20086;-68
2022/03/14 02:34:48;;;;;;;3.35;1.90;;;;;;;10.73;62.21;101692.63;5114707;27;20040;-69
2022/03/14 02:37:15;;;;;;;2.63;2.30;;;;;;;10.71;62.17;101692.66;5115151;27;20097;-70
2022/03/14 02:39:42;;;;;;;2.90;2.15;;;;;;;10.71;62.17;101695.28;5111632;27;20047;-68
2022/03/14 02:42:09;;;;;;;2.25;1.80;;;;;;;10.70;62.21;101695.31;5114069;27;20051;-69
2022/03/14 02:44:42;;;;;;;2.33;1.70;;;;;;;10.70;62.23;101690.91;5113956;27;20032;-66
2022/03/14 02:47:11;;;;;;;3.08;2.20;;;;;;;10.72;62.84;101704.09;5113479;27;20040;-68
2022/03/14 02:49:38;;;;;;;3.05;2.30;;;;;;;10.70;62.68;101703.22;5114135;27;20036;-66
2022/03/14 02:52:05;;;;;;;2.53;1.85;;;;;;;10.69;62.99;101707.63;5108213;27;20090;-66
2022/03/14 02:54:40;;;;;;;2.63;1.95;;;;;;;10.68;62.93;101702.38;5115136;27;20039;-65
2022/03/14 02:57:08;;;;;;;2.92;2.05;;;;;;;10.65;63.10;101707.69;5112543;28;20115;-65
2022/03/14 02:59:35;;;;;;;2.88;2.10;;;;;;;10.64;63.62;101716.50;5113468;27;20040;-67
2022/03/14 03:02:03;;;;;;;3.35;2.08;;;;;;;10.61;63.84;101720.06;5110263;27;20047;-67
2022/03/14 03:04:30;;;;;;;3.03;2.20;;;;;;;10.57;64.10;101724.53;5112496;27;20560;-70
2022/03/14 03:06:58;;;;;;;2.72;2.13;;;;;;;10.53;64.51;101737.78;5111613;27;20032;-70
2022/03/14 03:09:27;;;;;;;2.42;2.10;;;;;;;10.50;64.80;101738.72;5114052;27;20076;-72
2022/03/14 03:11:54;;;;;;;3.45;2.53;;;;;;;10.49;65.21;101733.44;5108253;27;20040;-71
2022/03/14 03:14:22;;;;;;;3.55;2.38;;;;;;;10.47;65.30;101746.66;5106431;27;20078;-71
2022/03/14 03:16:49;;;;;;;2.75;2.22;;;;;;;10.46;65.40;101744.91;5106607;28;20036;-71
2022/03/14 03:19:17;;;;;;;3.28;2.47;;;;;;;10.46;65.45;101751.97;5111070;27;20525;-71
2022/03/14 03:21:44;;;;;;;3.33;2.20;;;;;;;10.44;65.59;101744.06;5113998;27;20527;-70
2022/03/14 03:24:13;;;;;;;2.97;2.20;;;;;;;10.43;65.84;101755.50;5106959;28;20036;-68
2022/03/14 03:26:40;;;;;;;3.72;2.38;;;;;;;10.43;66.13;101754.63;5111246;27;20064;-70
2022/03/14 03:29:09;;;;;;;3.60;2.35;;;;;;;10.42;66.46;101764.31;5107875;27;20051;-70
2022/03/14 03:31:38;;;;;;;3.17;2.40;;;;;;;10.40;66.75;101766.09;5110193;28;20051;-70
2022/03/14 03:34:06;;;;;;;3.03;2.10;;;;;;;10.38;66.48;101774.00;5110884;28;20044;-69
2022/03/14 03:36:33;;;;;;;3.47;2.35;;;;;;;10.39;66.95;101780.19;5111471;27;20038;-69
2022/03/14 03:39:01;;;;;;;2.97;2.35;;;;;;;10.38;66.78;101784.56;5112710;27;20679;-69
2022/03/14 03:41:28;;;;;;;3.72;2.38;;;;;;;10.37;66.61;101784.56;5112908;27;20044;-70
2022/03/14 03:43:58;;;;;;;3.53;2.33;;;;;;;10.34;66.76;101790.75;5111719;28;20072;-72
2022/03/14 03:46:25;;;;;;;2.53;2.17;;;;;;;10.34;66.61;101792.50;5112728;27;20032;-72
2022/03/14 03:48:52;;;;;;;3.33;2.47;;;;;;;10.34;66.70;101805.69;5112828;28;20123;-71
2022/03/14 03:51:19;;;;;;;3.10;2.33;;;;;;;10.34;66.48;101803.94;5112738;28;20527;-68
2022/03/14 03:53:47;;;;;;;3.10;2.38;;;;;;;10.36;66.52;101803.91;5111961;28;20037;-68
2022/03/14 03:56:14;;;;;;;4.30;2.60;;;;;;;10.35;66.87;101812.69;5113125;27;20040;-67
2022/03/14 03:58:42;;;;;;;3.00;2.53;;;;;;;10.33;66.48;101810.09;5103247;27;20036;-67
2022/03/14 04:01:10;;;;;;;3.00;2.30;;;;;;;10.33;66.66;101820.63;5106468;27;20032;-68
2022/03/14 04:03:37;;;;;;;2.92;2.40;;;;;;;10.33;66.52;101830.28;5106091;27;20101;-68
2022/03/14 04:06:05;;;;;;;3.10;2.30;;;;;;;10.32;66.64;101820.66;5110785;28;20047;-67
2022/03/14 04:08:33;;;;;;;4.30;2.65;;;;;;;10.30;66.45;101825.09;5110861;27;20040;-70
2022/03/14 04:11:03;;;;;;;5.47;2.80;;;;;;;10.30;66.57;101833.00;5107738;28;20074;-67
2022/03/14 04:13:30;;;;;;;3.70;2.65;;;;;;;10.29;66.72;101837.38;5112657;27;20074;-70
2022/03/14 04:15:58;;;;;;;3.75;2.83;;;;;;;10.28;66.30;101847.94;5112452;27;20037;-69
2022/03/14 04:18:25;;;;;;;2.95;2.40;;;;;;;10.29;66.21;101853.19;5112408;28;20044;-69
2022/03/14 04:20:55;;;;;;;4.57;2.50;;;;;;;10.28;65.83;101856.72;5108145;27;20072;-70
2022/03/14 04:23:23;;;;;;;3.92;3.15;;;;;;;10.30;65.80;101856.72;5113340;27;20039;-69
2022/03/14 04:25:50;;;;;;;3.40;3.10;;;;;;;10.28;65.62;101859.34;5111123;28;20063;-69
2022/03/14 04:28:17;;;;;;;6.32;3.35;;;;;;;10.29;65.59;101862.88;5111424;27;20040;-70
2022/03/14 04:30:45;;;;;;;3.53;2.83;;;;;;;10.28;65.39;101871.66;5112811;27;20039;-70
2022/03/14 04:33:12;;;;;;;4.00;3.00;;;;;;;10.25;65.18;101876.06;5111407;28;20040;-69
2022/03/14 04:35:40;;;;;;;3.55;3.10;;;;;;;10.25;65.51;101873.44;5112455;27;20040;-69
2022/03/14 04:38:08;;;;;;;2.90;2.60;;;;;;;10.23;65.56;101874.34;5111639;27;20048;-68
2022/03/14 04:40:36;;;;;;;3.28;2.97;;;;;;;10.23;65.75;101880.50;5111649;27;20036;-70
2022/03/14 04:43:06;;;;;;;4.72;3.22;;;;;;;10.23;66.30;101890.16;5111493;27;20083;-69
2022/03/14 04:45:35;;;;;;;4.30;3.20;;;;;;;10.16;66.17;101891.13;5119765;27;20044;-70
2022/03/14 04:48:05;;;;;;;3.40;2.85;;;;;;;10.10;66.50;101887.69;5112110;27;20067;-69
2022/03/14 04:50:34;;;;;;;3.80;2.90;;;;;;;10.09;66.46;101900.88;5111548;27;20051;-69
2022/03/14 04:53:04;;;;;;;3.15;2.58;;;;;;;10.05;66.46;101907.06;5113451;27;20101;-70
2022/03/14 04:55:31;;;;;;;3.70;2.67;;;;;;;10.01;66.31;101908.84;5111795;27;20044;-71
2022/03/14 04:57:59;;;;;;;3.22;2.67;;;;;;;10.00;66.51;101919.41;5110680;28;20101;-70
2022/03/14 05:00:29;;;;;;;3.95;2.65;;;;;;;9.99;66.47;101910.63;5099843;28;20472;-70
2022/03/14 05:03:06;;;;;;;4.28;2.50;;;;;;;9.98;66.55;101923.81;5112672;27;20570;-70
2022/03/14 05:05:37;;;;;;;3.47;2.70;;;;;;;9.95;66.65;101932.66;5105311;27;20071;-69
2022/03/14 05:08:05;;;;;;;5.57;2.85;;;;;;;9.93;66.81;101937.06;5111011;27;20502;-67
2022/03/14 05:10:32;;;;;;;4.30;2.90;;;;;;;9.92;66.85;101937.94;5111342;27;20055;-67
2022/03/14 05:13:03;;;;;;;3.53;2.70;;;;;;;9.90;67.36;101945.88;5111205;27;20063;-67
2022/03/14 05:15:33;;;;;;;3.17;2.88;;;;;;;9.84;66.96;101950.31;5111816;27;20044;-66
2022/03/14 05:18:03;;;;;;;6.15;3.00;;;;;;;9.81;67.27;101951.22;5110508;27;20048;-67
2022/03/14 05:20:30;;;;;;;3.42;3.10;;;;;;;9.79;67.42;101955.63;5106488;27;20040;-66
2022/03/14 05:22:57;;;;;;;3.65;3.20;;;;;;;9.76;67.40;101959.16;5110797;27;20066;-66
2022/03/14 05:25:26;;;;;;;6.40;3.60;;;;;;;9.76;67.93;101968.81;5110746;27;20036;-65
2022/03/14 05:27:53;;;;;;;4.78;3.78;;;;;;;9.73;68.01;101976.72;5110064;27;20236;-66
2022/03/14 05:30:22;;;;;;;5.88;3.50;;;;;;;9.69;68.06;101983.78;5110229;27;20119;-64
2022/03/14 05:32:49;;;;;;;6.90;3.67;;;;;;;9.68;68.47;101987.28;5111076;27;20418;-64
2022/03/14 05:35:17;;;;;;;6.35;3.83;;;;;;;9.66;68.31;101991.72;5109122;27;20147;-69
2022/03/14 05:37:46;;;;;;;5.05;3.63;;;;;;;9.64;68.48;101996.97;5109330;28;20051;-68
2022/03/14 05:40:17;;;;;;;9.43;4.00;;;;;;;9.64;68.34;101991.72;5107316;28;20718;-68
2022/03/14 05:42:50;;;;;;;5.75;3.72;;;;;;;9.67;68.77;102003.13;5109207;28;20040;-66
2022/03/14 05:45:20;;;;;;;11.82;4.40;;;;;;;9.69;69.27;102002.22;5111851;28;20047;-67
2022/03/14 05:47:47;;;;;;;6.00;3.58;;;;;;;9.77;69.29;102002.16;5103864;28;20093;-65
2022/03/14 05:50:15;;;;;;;5.18;3.67;;;;;;;9.83;69.22;102002.09;5118092;27;20519;-67
2022/03/14 05:52:43;;;;;;;4.93;3.90;;;;;;;9.87;69.22;102014.38;5111101;28;20036;-66
2022/03/14 05:55:10;;;;;;;10.82;3.92;;;;;;;9.91;68.92;102004.66;5111219;27;20136;-66
2022/03/14 05:57:38;;;;;;;6.05;3.70;;;;;;;9.92;68.78;102011.69;5112146;27;20875;-67
2022/03/14 06:00:08;;;;;;;9.20;4.55;;;;;;;9.92;69.00;102017.81;5110186;28;20039;-66
2022/03/14 06:02:48;;;;;;;8.93;4.22;;;;;;;9.94;69.04;102013.41;5111915;28;20028;-66
2022/03/14 06:05:20;;;;;;;8.23;4.18;;;;;;;9.98;69.18;102016.88;5112515;27;20036;-66
2022/03/14 06:07:47;;;;;;;5.80;4.57;;;;;;;10.03;69.19;102028.28;5113631;27;20032;-68
2022/03/14 06:10:15;;;;;;;9.60;4.70;;;;;;;10.09;69.04;102033.47;5111084;27;20036;-67
2022/03/14 06:12:43;;;;;;;8.48;4.43;;;;;;;10.13;68.69;102036.94;5109215;28;20075;-67
2022/03/14 06:15:15;;;;;;;6.03;3.92;;;;;;;10.20;68.40;102049.22;5111394;27;20038;-69
2022/03/14 06:17:43;;;;;;;5.65;3.90;;;;;;;10.21;68.14;102044.78;5112050;27;20547;-67
2022/03/14 06:20:15;;;;;;;6.28;4.20;;;;;;;10.23;68.14;102051.78;5111400;28;20083;-66
2022/03/14 06:22:46;;;;;;;4.80;3.97;;;;;;;10.23;67.84;102050.94;5110984;27;20103;-67
2022/03/14 06:25:17;;;;;;;7.45;4.32;;;;;;;10.22;67.76;102057.97;5107314;27;20040;-69
2022/03/14 06:27:45;;;;;;;9.30;3.97;;;;;;;10.24;67.78;102069.34;5100888;27;20036;-66
2022/03/14 06:30:14;;;;;;;5.65;4.00;;;;;;;10.24;67.53;102072.00;5105439;27;20051;-68
2022/03/14 06:32:43;;;;;;;8.65;4.10;;;;;;;10.26;67.49;102086.03;5110297;28;20090;-69
2022/03/14 06:35:13;;;;;;;6.50;4.28;;;;;;;10.22;67.25;102076.44;5103289;28;20044;-69
2022/03/14 06:37:41;;;;;;;6.65;4.15;;;;;;;10.14;67.16;102087.91;5108037;28;20040;-69
2022/03/14 06:40:08;;;;;;;11.40;4.90;;;;;;;10.07;67.40;102089.72;5101349;27;20036;-70
2022/03/14 06:42:39;;;;;;;7.93;4.68;;;;;;;9.99;67.28;102091.53;5108020;27;20044;-69
2022/03/14 06:45:10;;;;;;;8.95;5.05;;;;;;;9.92;67.70;102091.56;5108203;27;20097;-69
2022/03/14 06:47:38;;;;;;;9.25;5.10;;;;;;;9.87;67.76;102096.03;5109190;27;20050;-68
2022/03/14 06:50:06;;;;;;;7.05;5.15;;;;;;;9.86;68.33;102086.38;5110368;27;20050;-69
2022/03/14 06:52:34;;;;;;;10.68;5.20;;;;;;;9.84;68.15;102093.41;5109949;27;20064;-68
2022/03/14 06:55:04;;;;;;;9.55;5.97;;;;;;;9.82;68.10;102097.78;5113013;27;20110;-69
2022/03/14 06:57:32;;;;;;;10.43;5.80;;;;;;;9.81;68.00;102100.44;5110201;28;20044;-69
2022/03/14 06:59:59;;;;;;;11.75;6.45;;;;;;;9.79;68.02;102108.38;5110611;27;20041;-69
2022/03/14 07:02:29;;;;;;;13.52;6.80;;;;;;;9.79;68.11;102111.00;5108043;27;20086;-68
2022/03/14 07:04:58;;;;;;;8.63;6.10;;;;;;;9.82;68.21;102112.75;5114911;27;20109;-69
2022/03/14 07:07:25;;;;;;;10.50;7.32;;;;;;;9.83;68.40;102109.22;5133066;27;20069;-70
2022/03/14 07:09:52;;;;;;;10.27;7.60;;;;;;;9.87;68.54;102110.97;5114270;27;20089;-69
2022/03/14 07:12:20;;;;;;;11.20;7.70;;;;;;;9.84;68.69;102125.00;5113505;27;20480;-69
2022/03/14 07:14:47;;;;;;;10.43;7.93;;;;;;;9.83;68.48;102120.63;5114544;28;20041;-69
2022/03/14 07:17:14;;;;;;;14.85;8.35;;;;;;;9.86;68.63;102122.38;5114962;27;20036;-69
2022/03/14 07:19:45;;;;;;;17.17;9.13;;;;;;;9.87;68.56;102124.13;5121010;27;20123;-69
2022/03/14 07:22:17;;;;;;;14.05;8.52;;;;;;;9.88;68.58;102126.75;5114592;28;20971;-68
2022/03/14 07:24:47;;;;;;;13.55;8.93;;;;;;;9.91;68.48;102126.72;5110536;27;20044;-70
2022/03/14 07:27:15;;;;;;;11.57;8.63;;;;;;;9.96;68.72;102124.06;5128373;27;20054;-69
2022/03/14 07:29:42;;;;;;;15.38;8.75;;;;;;;9.95;68.24;102124.94;5121630;27;20510;-70
2022/03/14 07:32:13;;;;;;;15.52;8.93;;;;;;;9.99;68.21;102134.56;5111717;27;20527;-70
2022/03/14 07:34:40;;;;;;;14.55;8.70;;;;;;;10.03;68.16;102132.78;5115220;27;20044;-68
2022/03/14 07:37:07;;;;;;;16.75;8.60;;;;;;;10.04;68.25;102139.78;5130689;27;20043;-68
2022/03/14 07:39:34;;;;;;;16.60;9.18;;;;;;;10.07;67.94;102142.41;5128993;27;20044;-70
2022/03/14 07:42:01;;;;;;;13.85;8.05;;;;;;;10.10;67.78;102140.63;5113923;27;20044;-69
2022/03/14 07:44:28;;;;;;;11.05;7.93;;;;;;;10.16;67.86;102134.44;5113792;27;20040;-69
2022/03/14 07:46:55;;;;;;;12.20;7.72;;;;;;;10.23;67.67;102141.41;5114194;28;20047;-70
2022/03/14 07:49:22;;;;;;;13.40;8.15;;;;;;;10.31;67.71;102149.25;5113246;27;20040;-69
2022/03/14 07:51:49;;;;;;;16.65;8.68;;;;;;;10.37;67.50;102146.63;5114193;28;20059;-70
2022/03/14 07:54:20;;;;;;;12.70;8.15;;;;;;;10.44;67.06;102151.81;5114043;27;20525;-70
2022/03/14 07:56:47;;;;;;;12.73;9.25;;;;;;;10.52;66.90;102158.78;5113835;28;20051;-69
2022/03/14 07:59:14;;;;;;;13.07;8.68;;;;;;;10.60;66.66;102165.75;5113563;27;20119;-69
2022/03/14 08:01:41;;;;;;;18.20;8.55;;;;;;;10.65;66.38;102174.47;5113830;27;20125;-70
2022/03/14 08:04:08;;;;;;;14.80;8.02;;;;;;;10.69;66.21;102174.44;5114187;27;20474;-69
2022/03/14 08:06:41;;;;;;;13.93;8.40;;;;;;;10.70;66.27;102183.22;5112574;28;20036;-70
2022/03/14 08:09:08;;;;;;;13.70;8.52;;;;;;;10.69;66.13;102187.63;5110730;27;20099;-69
2022/03/14 08:11:38;;;;;;;14.98;8.48;;;;;;;10.72;66.20;102197.28;5112951;28;20036;-69
2022/03/14 08:14:05;;;;;;;16.55;8.35;;;;;;;10.75;66.03;102194.59;5113813;27;20067;-70
2022/03/14 08:16:33;;;;;;;15.80;8.52;;;;;;;10.80;65.93;102199.81;5113136;27;20097;-69
2022/03/14 08:19:00;;;;;;;17.52;9.18;;;;;;;10.79;65.77;102204.25;5112935;27;20046;-70
2022/03/14 08:21:28;;;;;;;16.75;8.73;;;;;;;10.81;65.78;102209.50;5113919;27;20475;-69
2022/03/14 08:23:55;;;;;;;22.02;9.57;;;;;;;10.86;65.74;102207.69;5103901;28;20383;-69
2022/03/14 08:26:22;;;;;;;18.13;9.25;;;;;;;10.91;65.41;102212.94;5113404;27;20056;-69
2022/03/14 08:28:49;;;;;;;18.17;9.02;;;;;;;10.94;65.22;102215.50;5112378;28;20072;-69
2022/03/14 08:31:21;;;;;;;13.52;8.65;;;;;;;10.94;65.38;102223.44;5113383;27;20040;-69
2022/03/14 08:33:49;;;;;;;17.80;9.35;;;;;;;10.98;65.35;102227.81;5112879;28;20036;-70
2022/03/14 08:36:20;;;;;;;28.58;9.57;;;;;;;11.01;64.71;102233.06;5112683;28;20506;-70
2022/03/14 08:38:48;;;;;;;17.58;9.20;;;;;;;11.04;64.72;102238.28;5112541;27;20044;-69
2022/03/14 08:41:17;;;;;;;15.45;8.57;;;;;;;11.07;64.75;102240.03;5113952;27;20042;-70
2022/03/14 08:43:46;;;;;;;18.02;9.10;;;;;;;11.14;64.55;102254.91;5113607;27;20040;-69
2022/03/14 08:46:16;;;;;;;13.95;9.40;;;;;;;11.17;64.11;102245.19;5113614;28;20036;-69
2022/03/14 08:48:44;;;;;;;15.32;9.63;;;;;;;11.21;64.18;102253.09;5112356;28;20510;-70
2022/03/14 08:51:11;;;;;;;16.98;8.75;;;;;;;11.22;63.92;102253.06;5113149;28;20040;-69
2022/03/14 08:53:38;;;;;;;16.27;8.50;;;;;;;11.22;64.28;102261.00;5113467;28;20044;-69
2022/03/14 08:56:08;;;;;;;18.02;9.57;;;;;;;11.25;64.40;102268.00;5113551;27;20040;-69
2022/03/14 08:58:35;;;;;;;12.73;9.40;;;;;;;11.25;63.92;102273.28;5108714;28;20087;-69
2022/03/14 09:01:04;;;;;;;16.67;9.25;;;;;;;11.23;63.73;102280.34;5113769;27;20082;-69
2022/03/14 09:03:32;;;;;;;17.63;9.57;;;;;;;11.15;63.76;102285.69;5114218;28;20070;-69
2022/03/14 09:05:59;;;;;;;15.68;9.23;;;;;;;11.07;63.97;102288.41;5114445;28;20486;-70
2022/03/14 09:08:27;;;;;;;21.10;9.80;;;;;;;11.05;64.30;102290.19;5112765;28;20040;-70
2022/03/14 09:10:55;;;;;;;19.05;9.95;;;;;;;11.04;64.36;102296.34;5108342;27;20055;-70
2022/03/14 09:13:25;;;;;;;27.98;11.18;;;;;;;10.98;64.38;102301.69;5113915;27;20047;-70
2022/03/14 09:15:55;;;;;;;15.73;9.60;;;;;;;10.93;64.76;102301.72;5110565;28;20044;-69
2022/03/14 09:18:24;;;;;;;32.05;11.07;;;;;;;10.92;64.90;102299.97;5109550;28;20497;-70
2022/03/14 09:20:55;;;;;;;18.88;9.77;;;;;;;10.95;64.82;102310.50;5110058;27;20563;-71
2022/03/14 09:23:24;;;;;;;21.55;10.63;;;;;;;10.98;64.84;102310.50;5112175;28;20049;-70
2022/03/14 09:25:52;;;;;;;28.85;10.90;;;;;;;10.99;64.68;102314.00;5111738;27;20059;-71
2022/03/14 09:28:20;;;;;;;19.27;10.05;;;;;;;11.03;64.90;102310.47;5111660;27;20111;-69
2022/03/14 09:30:47;;;;;;;36.33;10.65;;;;;;;11.09;64.82;102315.66;5110571;28;20040;-70
2022/03/14 09:33:15;;;;;;;21.70;10.55;;;;;;;11.15;64.86;102312.97;5102518;28;20054;-70
2022/03/14 09:35:42;;;;;;;25.63;10.82;;;;;;;11.32;64.39;102326.00;5111563;27;20581;-70
2022/03/14 09:38:14;;;;;;;34.47;11.60;;;;;;;11.53;64.21;102326.69;5112151;27;20816;-71
2022/03/14 09:40:45;;;;;;;23.13;9.98;;;;;;;11.71;63.31;102340.56;5107671;28;20166;-70
2022/03/14 09:43:18;;;;;;;23.20;9.88;;;;;;;11.79;63.31;102333.47;5112069;28;20518;-70
2022/03/14 09:45:48;;;;;;;21.23;10.63;;;;;;;11.83;62.63;102340.44;5112395;27;20055;-69
2022/03/14 09:48:16;;;;;;;27.42;10.48;;;;;;;11.85;62.75;102336.00;5110742;27;20037;-70
2022/03/14 09:50:45;;;;;;;17.58;10.45;;;;;;;11.86;62.46;102344.81;5112232;27;20044;-70
2022/03/14 09:53:17;;;;;;;29.63;11.45;;;;;;;11.85;62.59;102351.00;5110320;28;20040;-70
2022/03/14 09:55:48;;;;;;;18.60;9.88;;;;;;;11.85;62.45;102357.16;5105021;28;20057;-70
2022/03/14 09:58:20;;;;;;;25.10;11.07;;;;;;;11.91;62.09;102364.13;5113493;27;20040;-69
2022/03/14 10:00:50;;;;;;;17.60;10.43;;;;;;;11.93;61.93;102365.88;5118014;27;20040;-69
2022/03/14 10:03:22;;;;;;;22.23;10.15;;;;;;;11.90;62.15;102372.94;5111993;27;20119;-70
2022/03/14 10:05:49;;;;;;;20.60;11.10;;;;;;;11.89;62.21;102380.03;5110194;27;20052;-70
2022/03/14 10:08:17;;;;;;;19.92;11.18;;;;;;;11.92;62.20;102379.09;5109928;27;20044;-70
2022/03/14 10:10:44;;;;;;;18.67;10.57;;;;;;;11.99;62.07;102379.94;5110787;27;20044;-70
2022/03/14 10:13:33;;;;;;;22.98;10.35;;;;;;;11.93;61.93;102391.44;5111871;27;20559;-69
2022/03/14 10:16:00;;;;;;;23.85;10.93;;;;;;;11.83;62.08;102385.34;5112413;28;20048;-70
2022/03/14 10:18:27;;;;;;;19.85;10.93;;;;;;;11.71;62.25;102389.00;5112577;27;20045;-69
2022/03/14 10:20:57;;;;;;;16.75;9.20;;;;;;;11.64;62.58;102388.19;5109081;27;20040;-69
2022/03/14 10:23:41;;;;;;;22.75;9.23;;;;;;;11.61;62.61;102393.50;5111806;27;20051;-69
2022/03/14 10:26:15;;;;;;;17.80;10.23;;;;;;;11.70;62.45;102394.31;5111481;27;20123;-69
2022/03/14 10:28:49;;;;;;;15.38;9.40;;;;;;;11.94;62.06;102394.03;5104397;28;20066;-71
2022/03/14 10:31:39;;;;;;;18.88;9.23;;;;;;;12.35;61.28;102394.47;5110859;27;20411;-70
2022/03/14 10:34:11;;;;;;;21.17;9.98;;;;;;;12.68;60.74;102386.09;5112412;27;20072;-70
2022/03/14 10:36:45;;;;;;;19.05;8.82;;;;;;;12.93;59.92;102388.34;5111047;28;20562;-70
2022/03/14 10:39:32;;;;;;;15.10;8.52;;;;;;;13.10;58.84;102386.34;5112451;27;20039;-70
2022/03/14 10:42:08;;;;;;;21.52;11.15;;;;;;;13.07;59.55;102393.47;5109134;27;20047;-69
2022/03/14 10:44:53;;;;;;;12.45;6.93;;;;;;;12.89;58.97;102401.66;5109016;28;20036;-70
2022/03/14 10:47:24;;;;;;;14.68;6.25;;;;;;;12.76;59.17;102396.56;5115575;27;20311;-70
2022/03/14 10:49:52;;;;;;;13.40;6.35;;;;;;;12.71;59.05;102401.94;5114852;27;20559;-70
2022/03/14 10:52:21;;;;;;;13.40;6.38;;;;;;;12.77;58.19;102415.06;5114473;28;20040;-70
2022/03/14 10:54:50;;;;;;;10.50;5.68;;;;;;;12.85;57.84;102415.81;5115509;27;20051;-70
2022/03/14 10:57:28;;;;;;;12.45;4.53;;;;;;;12.97;57.34;102411.25;5113380;27;20044;-70
2022/03/14 10:59:56;;;;;;;14.43;6.22;;;;;;;13.31;56.46;102411.56;5114575;27;20923;-70
2022/03/14 11:02:26;;;;;;;18.35;7.05;;;;;;;13.67;55.84;102418.94;5115173;27;20042;-69
2022/03/14 11:04:59;;;;;;;18.63;5.00;;;;;;;13.85;55.10;102417.72;5115142;27;20051;-69
2022/03/14 11:07:33;;;;;;;15.93;5.07;;;;;;;13.89;54.43;102413.25;5110999;28;20044;-69
2022/03/14 11:10:06;;;;;;;;;;;;;;;13.80;53.30;102414.28;5115014;27;20042;-70
2022/03/14 11:12:33;;;;;;;22.45;11.18;;;;;;;13.86;54.77;102411.53;5115720;27;19930;-70
2022/03/14 11:15:05;;;;;;;19.23;7.25;;;;;;;13.95;54.30;102400.75;5113912;27;20040;-70
2022/03/14 11:17:36;;;;;;;12.35;4.78;;;;;;;14.13;54.05;102415.44;5114328;27;20048;-69
2022/03/14 11:20:23;;;;;;;9.30;4.85;;;;;;;14.27;53.66;102416.91;5109943;28;20041;-69
2022/03/14 11:22:53;;;;;;;25.27;4.97;;;;;;;14.33;52.48;102413.25;5112984;27;20130;-69
2022/03/14 11:25:22;;;;;;;26.95;5.32;;;;;;;14.40;52.67;102412.19;5113352;27;20040;-69
2022/03/14 11:27:51;;;;;;;13.35;5.60;;;;;;;14.66;51.74;102416.94;5111862;27;20127;-68
2022/03/14 11:30:19;;;;;;;11.43;4.50;;;;;;;14.91;50.70;102417.28;5113265;27;20042;-69